Time;durP1;ratioP1;P1;durP2;ratioP2;P2;SDS_P1;SDS_P2;PMS_P1;PMS_P2;Temp;Humidity;BMP_temperature;BMP_pressure;BME280_temperature;BME280_humidity;BME280_pressure;Samples;Min_cycle;Max_cycle;Signal;HPM_P1;HPM_P2
2022/02/19 00:01:00;;;;;;;7.32;1.30;;;6.60;71.50;;;;;;5024684;28;20523;-77
2022/02/19 00:03:28;;;;;;;5.57;1.02;;;6.60;71.50;;;;;;5040616;28;20048;-77
2022/02/19 00:05:57;;;;;;;7.25;0.90;;;6.60;71.70;;;;;;5025398;28;20049;-77
2022/02/19 00:08:30;;;;;;;9.48;0.90;;;6.60;71.80;;;;;;5040804;28;20397;-77
2022/02/19 00:10:58;;;;;;;10.80;1.75;;;6.60;71.90;;;;;;5057678;28;20043;-77
2022/02/19 00:13:27;;;;;;;5.82;1.17;;;6.60;71.60;;;;;;5057702;28;20450;-76
2022/02/19 00:15:54;;;;;;;4.90;0.90;;;6.60;71.50;;;;;;5025475;28;20111;-77
2022/02/19 00:18:21;;;;;;;5.50;1.02;;;6.60;71.70;;;;;;5025755;28;20064;-77
2022/02/19 00:21:06;;;;;;;4.93;0.80;;;6.60;71.70;;;;;;5026461;28;20118;-77
2022/02/19 00:23:41;;;;;;;13.80;1.35;;;6.60;71.70;;;;;;5012629;28;20044;-77
2022/02/19 00:26:16;;;;;;;6.57;1.02;;;6.60;71.80;;;;;;5026090;28;20041;-77
2022/02/19 00:28:44;;;;;;;8.57;1.20;;;6.60;71.80;;;;;;5057702;28;20045;-76
2022/02/19 00:31:11;;;;;;;6.70;1.00;;;6.60;71.80;;;;;;5042524;28;20135;-76
2022/02/19 00:33:43;;;;;;;9.55;1.30;;;6.60;72.00;;;;;;5043462;28;20082;-76
2022/02/19 00:36:10;;;;;;;9.75;1.55;;;6.60;72.10;;;;;;5046401;28;20052;-77
2022/02/19 00:38:53;;;;;;;9.68;1.67;;;6.50;72.10;;;;;;5062988;28;20052;-76
2022/02/19 00:41:20;;;;;;;13.80;1.40;;;6.50;72.30;;;;;;5063187;28;20104;-77
2022/02/19 00:43:51;;;;;;;5.88;0.90;;;6.50;72.50;;;;;;5046218;28;20048;-77
2022/02/19 00:46:20;;;;;;;7.03;1.02;;;6.40;72.60;;;;;;5057637;28;20064;-77
2022/02/19 00:48:47;;;;;;;8.43;0.85;;;6.40;72.60;;;;;;5074681;28;20075;-77
2022/02/19 00:51:18;;;;;;;8.32;1.27;;;6.40;72.70;;;;;;5041087;28;20135;-77
2022/02/19 00:53:45;;;;;;;8.52;1.30;;;6.40;72.80;;;;;;5056837;28;20135;-77
2022/02/19 00:56:13;;;;;;;6.68;0.73;;;6.40;73.00;;;;;;5040332;28;20051;-77
2022/02/19 00:58:43;;;;;;;8.48;1.80;;;6.40;73.30;;;;;;5022215;28;20127;-77
2022/02/19 01:01:10;;;;;;;7.78;1.27;;;6.40;73.50;;;;;;5024096;28;20041;-77
2022/02/19 01:03:53;;;;;;;9.63;1.42;;;6.40;73.70;;;;;;5026534;28;20207;-77
2022/02/19 01:06:23;;;;;;;10.18;1.30;;;6.40;73.90;;;;;;5040427;28;20515;-77
2022/02/19 01:08:50;;;;;;;8.05;1.10;;;6.40;74.10;;;;;;5056443;28;20563;-77
2022/02/19 01:11:20;;;;;;;7.28;0.80;;;6.40;74.30;;;;;;5056520;28;20079;-77
2022/02/19 01:13:51;;;;;;;5.90;0.85;;;6.40;74.30;;;;;;5024008;28;20072;-77
2022/02/19 01:16:21;;;;;;;8.20;1.20;;;6.40;74.50;;;;;;5024635;28;20051;-77
2022/02/19 01:18:48;;;;;;;8.52;1.10;;;6.40;74.60;;;;;;5056726;28;20508;-79
2022/02/19 01:21:18;;;;;;;9.23;2.33;;;6.40;74.60;;;;;;5023560;28;20063;-79
2022/02/19 01:23:46;;;;;;;7.65;1.52;;;6.40;74.40;;;;;;5056179;28;20041;-79
2022/02/19 01:26:13;;;;;;;7.82;0.77;;;6.40;74.40;;;;;;5023199;28;20593;-79
2022/02/19 01:28:45;;;;;;;9.05;1.05;;;6.40;74.40;;;;;;5040390;28;20059;-79
2022/02/19 01:31:14;;;;;;;6.32;0.80;;;6.40;74.40;;;;;;5039809;28;20214;-79
2022/02/19 01:33:41;;;;;;;6.88;0.70;;;6.50;74.50;;;;;;5039220;28;20086;-79
2022/02/19 01:36:12;;;;;;;8.55;1.30;;;6.40;74.40;;;;;;5039816;28;20068;-79
2022/02/19 01:38:40;;;;;;;8.23;1.00;;;6.50;74.40;;;;;;5039696;28;20048;-79
2022/02/19 01:41:07;;;;;;;7.60;1.23;;;6.50;74.30;;;;;;5023133;28;20058;-79
2022/02/19 01:43:36;;;;;;;5.78;0.95;;;6.50;74.20;;;;;;5039558;28;20469;-79
2022/02/19 01:46:05;;;;;;;6.95;1.38;;;6.50;74.30;;;;;;5039881;28;20056;-79
2022/02/19 01:48:34;;;;;;;8.15;0.95;;;6.50;74.30;;;;;;5055761;28;20044;-79
2022/02/19 01:51:01;;;;;;;5.95;1.02;;;6.50;74.30;;;;;;5039245;28;20408;-79
2022/02/19 01:53:28;;;;;;;6.93;0.80;;;6.50;74.10;;;;;;5022855;28;20053;-79
2022/02/19 01:56:02;;;;;;;4.75;0.80;;;6.50;73.60;;;;;;5055550;28;20052;-79
2022/02/19 01:58:39;;;;;;;5.10;0.80;;;6.50;73.30;;;;;;5039735;28;20441;-79
2022/02/19 02:01:30;;;;;;;5.88;1.50;;;6.50;73.20;;;;;;5059000;28;20052;-80
2022/02/19 02:04:18;;;;;;;7.47;0.98;;;6.40;72.40;;;;;;5058386;28;20051;-79
2022/02/19 02:06:48;;;;;;;6.38;0.70;;;6.40;71.90;;;;;;5023401;28;20036;-79
2022/02/19 02:09:20;;;;;;;5.53;0.70;;;6.50;71.70;;;;;;5055384;28;20048;-77
2022/02/19 02:11:47;;;;;;;5.70;0.60;;;6.50;71.30;;;;;;5055220;28;20390;-77
2022/02/19 02:14:15;;;;;;;4.95;0.88;;;6.40;71.20;;;;;;5038990;28;20079;-77
2022/02/19 02:17:14;;;;;;;6.85;0.88;;;6.50;71.30;;;;;;5042637;28;20062;-77
2022/02/19 02:19:43;;;;;;;3.13;0.82;;;6.40;71.50;;;;;;5038968;28;20437;-77
2022/02/19 02:22:18;;;;;;;3.53;0.60;;;6.40;71.50;;;;;;5039670;28;20138;-77
2022/02/19 02:24:58;;;;;;;6.28;0.70;;;6.40;71.80;;;;;;5038703;28;20041;-77
2022/02/19 02:27:40;;;;;;;4.50;0.85;;;6.40;71.80;;;;;;5024368;28;20425;-77
2022/02/19 02:30:10;;;;;;;6.82;0.60;;;6.40;71.70;;;;;;5035071;28;20045;-77
2022/02/19 02:32:54;;;;;;;4.40;0.85;;;6.40;71.80;;;;;;5035172;28;20053;-77
2022/02/19 02:35:22;;;;;;;6.07;1.02;;;6.40;71.80;;;;;;5019030;28;20048;-77
2022/02/19 02:37:53;;;;;;;3.65;0.85;;;6.40;71.70;;;;;;5034846;28;20067;-77
2022/02/19 02:40:31;;;;;;;6.30;0.73;;;6.40;71.60;;;;;;5035385;28;20053;-77
2022/02/19 02:43:02;;;;;;;7.20;0.68;;;6.40;71.90;;;;;;5003327;28;20041;-77
2022/02/19 02:45:29;;;;;;;5.20;0.80;;;6.40;71.70;;;;;;5002100;28;20167;-77
2022/02/19 02:48:17;;;;;;;9.68;0.95;;;6.40;71.50;;;;;;5034567;28;20037;-77
2022/02/19 02:50:49;;;;;;;4.13;0.60;;;6.40;71.10;;;;;;5018246;28;20049;-77
2022/02/19 02:53:39;;;;;;;7.90;0.70;;;6.40;71.10;;;;;;5008124;28;20049;-77
2022/02/19 02:56:08;;;;;;;5.15;0.50;;;6.40;71.00;;;;;;5018248;28;20138;-77
2022/02/19 02:58:35;;;;;;;5.60;0.60;;;6.50;70.80;;;;;;5034089;28;20064;-77
2022/02/19 03:01:07;;;;;;;6.00;0.47;;;6.50;71.00;;;;;;5034985;28;20040;-77
2022/02/19 03:03:35;;;;;;;3.40;0.68;;;6.40;71.00;;;;;;5033782;28;20045;-77
2022/02/19 03:06:04;;;;;;;9.73;1.05;;;6.50;71.20;;;;;;5001856;28;20044;-77
2022/02/19 03:08:34;;;;;;;6.00;0.68;;;6.50;71.30;;;;;;5018132;28;20099;-77
2022/02/19 03:11:01;;;;;;;6.22;0.57;;;6.50;71.20;;;;;;5018671;28;20151;-77
2022/02/19 03:13:33;;;;;;;6.90;0.85;;;6.50;71.10;;;;;;5002976;28;20055;-77
2022/02/19 03:16:00;;;;;;;7.22;1.48;;;6.50;71.10;;;;;;5018143;28;20148;-77
2022/02/19 03:18:28;;;;;;;6.00;0.70;;;6.50;70.90;;;;;;5018590;28;20045;-77
2022/02/19 03:20:58;;;;;;;5.65;1.50;;;6.40;70.80;;;;;;5018643;28;20060;-77
2022/02/19 03:23:28;;;;;;;3.92;0.88;;;6.40;70.90;;;;;;5001962;28;20143;-79
2022/02/19 03:26:07;;;;;;;4.57;0.57;;;6.50;71.10;;;;;;5018363;28;20041;-82
2022/02/19 03:28:49;;;;;;;7.00;0.75;;;6.50;71.20;;;;;;5021677;28;20076;-83
2022/02/19 03:31:19;;;;;;;1.88;0.40;;;6.50;71.40;;;;;;5018075;28;20068;-80
2022/02/19 03:33:49;;;;;;;5.20;0.77;;;6.50;71.50;;;;;;5034149;28;20394;-80
2022/02/19 03:36:20;;;;;;;11.50;0.93;;;6.40;71.40;;;;;;5018157;28;20045;-80
2022/02/19 03:38:49;;;;;;;8.05;0.95;;;6.40;71.30;;;;;;5034323;28;20040;-80
2022/02/19 03:41:25;;;;;;;4.65;0.52;;;6.40;71.40;;;;;;5019358;28;20048;-80
2022/02/19 03:43:58;;;;;;;5.72;0.98;;;6.40;72.10;;;;;;5018191;28;20044;-79
2022/02/19 03:46:30;;;;;;;6.28;1.58;;;6.40;71.60;;;;;;5018588;28;20045;-79
2022/02/19 03:48:57;;;;;;;5.60;0.90;;;6.40;71.70;;;;;;5052086;28;20052;-80
2022/02/19 03:51:25;;;;;;;7.13;0.77;;;6.40;71.60;;;;;;5034028;28;20041;-80
2022/02/19 03:53:53;;;;;;;4.53;0.70;;;6.40;71.70;;;;;;5033950;28;20052;-80
2022/02/19 03:56:25;;;;;;;8.48;1.05;;;6.40;71.80;;;;;;5017433;28;20575;-80
2022/02/19 03:58:58;;;;;;;8.25;0.88;;;6.40;71.80;;;;;;5018601;28;20115;-81
2022/02/19 04:01:25;;;;;;;5.25;0.70;;;6.40;72.00;;;;;;5001701;28;20103;-80
2022/02/19 04:03:58;;;;;;;4.47;0.80;;;6.40;72.00;;;;;;5018154;28;20396;-80
2022/02/19 04:06:28;;;;;;;5.32;0.95;;;6.40;72.10;;;;;;5017939;28;20037;-80
2022/02/19 04:08:56;;;;;;;9.65;1.23;;;6.30;72.50;;;;;;5017726;28;20488;-80
2022/02/19 04:11:24;;;;;;;7.82;1.38;;;6.20;72.90;;;;;;5001910;28;20059;-79
2022/02/19 04:13:51;;;;;;;8.20;1.00;;;6.20;73.30;;;;;;5051993;28;20033;-79
2022/02/19 04:16:23;;;;;;;6.95;0.90;;;6.10;73.50;;;;;;5002890;28;20099;-79
2022/02/19 04:18:53;;;;;;;7.03;0.90;;;6.10;73.70;;;;;;5018052;28;20110;-79
2022/02/19 04:21:24;;;;;;;5.18;0.93;;;6.10;73.70;;;;;;5017705;28;20075;-79
2022/02/19 04:23:52;;;;;;;6.80;0.93;;;6.20;73.50;;;;;;5004879;28;20056;-79
2022/02/19 04:26:20;;;;;;;6.80;0.90;;;6.20;73.30;;;;;;5026311;28;20596;-79
2022/02/19 04:28:52;;;;;;;7.40;0.85;;;6.20;73.10;;;;;;5025857;28;20416;-79
2022/02/19 04:31:28;;;;;;;6.03;0.57;;;6.30;73.10;;;;;;5058579;28;20049;-79
2022/02/19 04:34:24;;;;;;;7.18;0.82;;;6.20;73.10;;;;;;5058191;28;20071;-79
2022/02/19 04:36:52;;;;;;;7.10;0.93;;;6.20;73.10;;;;;;5040913;28;20051;-79
2022/02/19 04:39:26;;;;;;;5.28;0.90;;;6.30;73.00;;;;;;5026109;28;20047;-79
2022/02/19 04:41:57;;;;;;;5.72;0.93;;;6.30;73.00;;;;;;5057284;28;20094;-79
2022/02/19 04:44:25;;;;;;;9.88;1.42;;;6.20;72.90;;;;;;5057046;28;20036;-79
2022/02/19 04:46:57;;;;;;;4.13;1.07;;;6.30;72.60;;;;;;5057288;28;20544;-80
2022/02/19 04:49:30;;;;;;;7.70;0.65;;;6.30;72.80;;;;;;5025645;28;20045;-80
2022/02/19 04:51:59;;;;;;;4.05;0.60;;;6.30;72.80;;;;;;5040934;28;20056;-80
2022/02/19 04:54:28;;;;;;;6.45;0.55;;;6.30;72.70;;;;;;5040527;28;20456;-80
2022/02/19 04:56:55;;;;;;;8.40;1.23;;;6.30;72.70;;;;;;5056668;28;20052;-80
2022/02/19 04:59:30;;;;;;;8.23;0.90;;;6.30;72.50;;;;;;5025219;28;20045;-78
2022/02/19 05:01:58;;;;;;;9.02;1.00;;;6.30;72.20;;;;;;5040634;28;20390;-77
2022/02/19 05:04:36;;;;;;;9.13;1.17;;;6.30;71.90;;;;;;5041559;28;20036;-77
2022/02/19 05:07:08;;;;;;;8.63;1.15;;;6.30;71.90;;;;;;5025002;28;20075;-77
2022/02/19 05:09:35;;;;;;;6.53;1.52;;;6.30;71.90;;;;;;5024404;28;20094;-77
2022/02/19 05:12:07;;;;;;;6.05;0.98;;;6.30;71.90;;;;;;5056494;28;20036;-77
2022/02/19 05:14:38;;;;;;;7.10;1.00;;;6.30;71.70;;;;;;5040369;28;20044;-77
2022/02/19 05:17:20;;;;;;;9.50;0.80;;;6.30;71.90;;;;;;5041830;28;20052;-77
2022/02/19 05:19:52;;;;;;;7.75;0.63;;;6.30;71.90;;;;;;5040393;28;20053;-77
2022/02/19 05:22:20;;;;;;;3.88;0.90;;;6.30;71.90;;;;;;5023692;28;20049;-77
2022/02/19 05:24:51;;;;;;;5.22;0.68;;;6.30;71.70;;;;;;5040163;28;20041;-77
2022/02/19 05:27:21;;;;;;;9.77;1.23;;;6.30;71.80;;;;;;5023546;28;20449;-77
2022/02/19 05:29:51;;;;;;;8.30;1.23;;;6.20;71.70;;;;;;5023766;28;20139;-78
2022/02/19 05:32:20;;;;;;;4.20;0.63;;;6.20;71.80;;;;;;5039802;28;20135;-77
2022/02/19 05:34:56;;;;;;;3.97;0.40;;;6.20;71.80;;;;;;5023914;28;20068;-77
2022/02/19 05:37:24;;;;;;;7.00;1.27;;;6.20;72.00;;;;;;5055348;28;20574;-77
2022/02/19 05:39:53;;;;;;;9.30;0.93;;;6.10;72.20;;;;;;5023086;28;20040;-77
2022/02/19 05:42:23;;;;;;;4.72;0.90;;;6.10;72.30;;;;;;5057615;28;20055;-78
2022/02/19 05:45:12;;;;;;;5.97;0.93;;;6.00;72.40;;;;;;5041054;28;20049;-77
2022/02/19 05:47:43;;;;;;;7.30;1.27;;;5.90;72.70;;;;;;5039496;28;20048;-77
2022/02/19 05:50:31;;;;;;;8.68;1.00;;;5.90;72.80;;;;;;5044170;28;20136;-77
2022/02/19 05:53:18;;;;;;;6.88;0.70;;;5.80;72.90;;;;;;5031108;28;20067;-77
2022/02/19 05:55:50;;;;;;;3.88;0.43;;;5.80;73.00;;;;;;5039467;28;20447;-77
2022/02/19 05:58:17;;;;;;;4.18;0.60;;;5.90;73.10;;;;;;5038994;28;20131;-78
2022/02/19 06:01:22;;;;;;;9.07;0.70;;;5.90;73.20;;;;;;5048988;28;20045;-77
2022/02/19 06:03:58;;;;;;;5.25;0.82;;;5.90;73.30;;;;;;5040076;28;20053;-77
2022/02/19 06:06:34;;;;;;;4.93;0.57;;;5.90;73.30;;;;;;5040121;28;20136;-77
2022/02/19 06:09:01;;;;;;;4.03;0.50;;;5.90;73.30;;;;;;5038308;28;20037;-77
2022/02/19 06:11:35;;;;;;;6.65;0.73;;;6.00;73.30;;;;;;5039333;28;20037;-77
2022/02/19 06:14:19;;;;;;;4.15;0.88;;;6.00;73.20;;;;;;5040208;28;20076;-77
2022/02/19 06:16:52;;;;;;;5.10;0.70;;;6.00;73.10;;;;;;5040760;28;20055;-76
2022/02/19 06:19:23;;;;;;;4.15;0.55;;;6.00;73.00;;;;;;5023991;28;20052;-76
2022/02/19 06:21:56;;;;;;;4.70;1.27;;;6.10;73.20;;;;;;5040588;28;20534;-76
2022/02/19 06:24:27;;;;;;;4.68;0.63;;;6.10;73.30;;;;;;5041238;28;20409;-78
2022/02/19 06:27:13;;;;;;;4.53;0.70;;;6.10;73.30;;;;;;5028773;28;20099;-78
2022/02/19 06:29:48;;;;;;;7.03;0.70;;;6.10;73.30;;;;;;5074902;28;20063;-82
2022/02/19 06:32:40;;;;;;;4.47;0.77;;;6.10;73.40;;;;;;5024356;28;20040;-82
2022/02/19 06:36:31;;;;;;;6.63;1.20;;;6.10;73.50;;;;;;5014191;28;20533;-83
2022/02/19 06:39:54;;;;;;;7.75;0.98;;;6.00;73.50;;;;;;5029622;28;20069;-81
2022/02/19 06:42:45;;;;;;;3.85;0.60;;;6.00;73.60;;;;;;4979811;28;20188;-78
2022/02/19 06:45:23;;;;;;;8.05;1.25;;;6.00;73.80;;;;;;5030292;28;20052;-79
2022/02/19 06:47:53;;;;;;;5.32;1.42;;;6.00;73.80;;;;;;5030507;28;20160;-82
2022/02/19 06:50:29;;;;;;;4.25;1.02;;;6.00;73.90;;;;;;5014169;28;20046;-80
2022/02/19 06:53:01;;;;;;;4.80;0.50;;;6.00;74.00;;;;;;4998661;28;20072;-83
2022/02/19 06:55:28;;;;;;;5.28;0.52;;;6.00;74.20;;;;;;5014176;28;20147;-86
2022/02/19 06:57:56;;;;;;;4.28;0.55;;;6.00;74.20;;;;;;5030804;28;20064;-80
2022/02/19 07:00:29;;;;;;;5.20;1.15;;;6.00;74.20;;;;;;4998556;28;20041;-77
2022/02/19 07:03:01;;;;;;;5.65;0.70;;;6.00;74.20;;;;;;5013814;28;20141;-79
2022/02/19 07:05:32;;;;;;;4.77;0.60;;;6.00;73.90;;;;;;5039284;28;20051;-80
2022/02/19 07:08:30;;;;;;;4.78;0.90;;;6.00;73.90;;;;;;5054397;28;20063;-80
2022/02/19 07:10:57;;;;;;;7.88;0.90;;;6.00;73.90;;;;;;5038206;28;20132;-85
2022/02/19 07:13:25;;;;;;;4.28;0.68;;;6.10;73.90;;;;;;5038266;28;20071;-80
2022/02/19 07:15:53;;;;;;;6.03;0.60;;;6.10;74.00;;;;;;5038039;28;20045;-78
2022/02/19 07:18:43;;;;;;;7.70;0.85;;;6.10;74.10;;;;;;5040638;28;20048;-84
2022/02/19 07:21:15;;;;;;;3.25;0.60;;;6.10;74.10;;;;;;5022472;28;20040;-83
2022/02/19 07:23:48;;;;;;;4.07;0.63;;;6.00;74.10;;;;;;5054211;28;20047;-80
2022/02/19 07:26:20;;;;;;;7.57;0.60;;;6.00;74.10;;;;;;5022336;28;20072;-82
2022/02/19 07:28:54;;;;;;;3.95;0.40;;;6.10;74.90;;;;;;5022180;28;20136;-82
2022/02/19 07:31:25;;;;;;;4.82;0.98;;;6.10;74.30;;;;;;5022058;28;20071;-81
2022/02/19 07:33:52;;;;;;;7.50;0.80;;;6.10;74.20;;;;;;5053869;28;20175;-79
2022/02/19 07:36:27;;;;;;;7.40;0.68;;;6.10;74.20;;;;;;5023321;28;20098;-83
2022/02/19 07:38:57;;;;;;;8.65;0.98;;;6.10;74.10;;;;;;5037557;28;20045;-82
2022/02/19 07:41:25;;;;;;;4.63;0.80;;;6.20;74.10;;;;;;5037998;28;20051;-83
2022/02/19 07:47:42;;;;;;;4.28;1.33;;;6.20;74.10;;;;;;5027162;28;20044;-76
2022/02/19 07:59:27;;;;;;;5.05;1.25;;;6.20;74.30;;;;;;5019738;28;20157;-76
2022/02/19 08:01:56;;;;;;;7.15;0.93;;;6.20;74.30;;;;;;5000571;28;20087;-76
2022/02/19 08:04:26;;;;;;;4.70;1.20;;;6.20;74.30;;;;;;5000359;28;20052;-76
2022/02/19 08:06:53;;;;;;;5.45;0.68;;;6.30;74.40;;;;;;4984616;28;20041;-76
2022/02/19 08:09:23;;;;;;;6.78;0.82;;;6.30;74.20;;;;;;5000708;28;20046;-76
2022/02/19 08:11:58;;;;;;;9.70;1.40;;;6.30;74.20;;;;;;5029718;28;20131;-76
2022/02/19 08:14:32;;;;;;;5.88;0.88;;;6.30;74.20;;;;;;5055052;28;20051;-77
2022/02/19 08:17:01;;;;;;;9.77;1.30;;;6.30;74.00;;;;;;5076153;28;20130;-77
2022/02/19 08:19:41;;;;;;;4.65;0.82;;;6.30;74.10;;;;;;5061399;28;20044;-77
2022/02/19 08:22:10;;;;;;;6.80;0.90;;;6.30;74.10;;;;;;5060167;28;20052;-77
2022/02/19 08:24:41;;;;;;;3.28;0.70;;;6.40;74.20;;;;;;5095428;28;20122;-77
2022/02/19 08:27:11;;;;;;;4.75;0.80;;;6.40;74.10;;;;;;5049055;28;20055;-77
2022/02/19 08:29:44;;;;;;;3.63;0.52;;;6.40;74.10;;;;;;5058281;28;20103;-77
2022/02/19 08:32:16;;;;;;;4.75;0.70;;;6.40;74.10;;;;;;5040877;28;20072;-77
2022/02/19 08:34:50;;;;;;;7.68;1.25;;;6.50;74.20;;;;;;5041054;28;20055;-77
2022/02/19 08:37:21;;;;;;;2.45;0.50;;;6.50;74.10;;;;;;5074988;28;20059;-77
2022/02/19 08:39:55;;;;;;;4.53;0.47;;;6.50;74.20;;;;;;5038875;28;20526;-77
2022/02/19 08:42:22;;;;;;;4.57;0.77;;;6.60;74.20;;;;;;5040711;28;20052;-77
2022/02/19 08:44:50;;;;;;;3.78;0.93;;;6.60;74.10;;;;;;5056967;28;20211;-79
2022/02/19 08:47:21;;;;;;;6.07;0.82;;;6.60;74.00;;;;;;5024407;28;20398;-79
2022/02/19 08:49:48;;;;;;;4.53;0.68;;;6.60;73.90;;;;;;5024583;28;20091;-79
2022/02/19 08:52:15;;;;;;;6.70;1.10;;;6.60;73.90;;;;;;5040564;28;20045;-79
2022/02/19 08:54:54;;;;;;;7.57;0.68;;;6.60;73.90;;;;;;5041635;28;20493;-79
2022/02/19 08:57:24;;;;;;;8.63;1.45;;;6.60;73.90;;;;;;5040228;28;20415;-79
2022/02/19 08:59:55;;;;;;;5.15;0.80;;;6.60;73.70;;;;;;5056738;28;20098;-79
2022/02/19 09:02:26;;;;;;;8.30;0.93;;;6.70;73.80;;;;;;5056386;28;20052;-79
2022/02/19 09:05:07;;;;;;;6.05;0.57;;;6.70;73.80;;;;;;5040454;28;20044;-79
2022/02/19 09:07:46;;;;;;;4.70;0.65;;;6.80;73.70;;;;;;5041667;28;20131;-79
2022/02/19 09:10:22;;;;;;;6.13;0.90;;;6.90;73.80;;;;;;5056843;28;20115;-79
2022/02/19 09:12:57;;;;;;;3.33;0.52;;;6.90;73.40;;;;;;5040629;28;20056;-79
2022/02/19 09:15:26;;;;;;;5.22;0.80;;;6.90;73.30;;;;;;5039684;28;20063;-79
2022/02/19 09:18:11;;;;;;;5.30;1.00;;;6.90;73.00;;;;;;5056415;28;20358;-79
2022/02/19 09:20:45;;;;;;;6.35;0.60;;;7.00;72.80;;;;;;5040012;28;20050;-78
2022/02/19 09:23:37;;;;;;;5.90;0.90;;;7.00;72.90;;;;;;5058142;28;20051;-78
2022/02/19 09:26:28;;;;;;;5.38;0.70;;;7.10;73.10;;;;;;5029681;28;20078;-79
2022/02/19 09:29:37;;;;;;;6.10;0.80;;;7.20;73.10;;;;;;5039829;28;20055;-79
2022/02/19 09:32:08;;;;;;;7.05;0.70;;;7.30;72.70;;;;;;5058492;28;20411;-78
2022/02/19 09:34:35;;;;;;;6.82;1.17;;;7.30;72.50;;;;;;5027146;28;20529;-78
2022/02/19 09:37:23;;;;;;;;;;;;;;;;;;;;;
2022/02/19 09:40:07;;;;;;;5.25;1.00;;;7.20;72.90;;;;;;5061730;28;20052;-78
2022/02/19 09:42:59;;;;;;;8.55;0.90;;;7.20;72.60;;;;;;5077894;28;20040;-79
2022/02/19 09:45:32;;;;;;;8.02;0.80;;;7.10;72.60;;;;;;5059946;28;20040;-79
2022/02/19 09:48:15;;;;;;;4.65;0.50;;;7.10;72.50;;;;;;5060918;28;20038;-79
2022/02/19 09:50:56;;;;;;;4.75;0.90;;;7.10;72.70;;;;;;5060171;28;20619;-79
2022/02/19 09:53:36;;;;;;;3.50;0.90;;;7.20;73.10;;;;;;5042880;28;20046;-78
2022/02/19 09:56:24;;;;;;;6.03;0.80;;;7.20;72.80;;;;;;5056428;28;20052;-79
2022/02/19 09:58:58;;;;;;;6.15;0.93;;;7.20;72.80;;;;;;5023777;28;20048;-78
2022/02/19 10:01:27;;;;;;;6.80;0.88;;;7.30;72.90;;;;;;5055728;28;20044;-79
2022/02/19 10:04:03;;;;;;;5.93;1.33;;;7.30;72.90;;;;;;5055884;28;20056;-78
2022/02/19 10:06:41;;;;;;;11.77;1.40;;;7.30;73.00;;;;;;5057445;28;20345;-78
2022/02/19 10:09:11;;;;;;;6.60;1.60;;;7.40;72.70;;;;;;5023013;28;20040;-78
2022/02/19 10:11:40;;;;;;;7.28;0.85;;;7.50;72.70;;;;;;5055145;28;20127;-78
2022/02/19 10:14:31;;;;;;;8.65;0.95;;;7.50;72.20;;;;;;5073526;28;20101;-77
2022/02/19 10:17:04;;;;;;;5.60;0.82;;;7.60;71.20;;;;;;5039621;28;20100;-79
2022/02/19 10:20:02;;;;;;;8.00;0.90;;;7.50;71.10;;;;;;5054755;28;20404;-79
2022/02/19 10:22:41;;;;;;;5.90;0.50;;;7.60;71.00;;;;;;5038477;28;20040;-78
2022/02/19 10:25:13;;;;;;;6.53;0.70;;;7.70;71.20;;;;;;5055683;28;20041;-78
2022/02/19 10:27:57;;;;;;;11.73;1.42;;;7.70;71.10;;;;;;5024427;28;20052;-78
2022/02/19 10:30:26;;;;;;;6.68;0.75;;;7.70;70.70;;;;;;5019366;28;20047;-78
2022/02/19 10:33:02;;;;;;;4.47;0.98;;;7.70;70.40;;;;;;5034993;28;20485;-79
2022/02/19 10:35:33;;;;;;;4.75;0.85;;;7.70;70.70;;;;;;5019379;28;20524;-78
2022/02/19 10:38:13;;;;;;;10.80;0.95;;;7.80;70.80;;;;;;5035044;28;20045;-78
2022/02/19 10:40:49;;;;;;;5.72;1.08;;;7.90;70.90;;;;;;5052674;28;20044;-78
2022/02/19 10:43:31;;;;;;;8.15;1.83;;;8.10;70.80;;;;;;5035716;28;20128;-79
2022/02/19 10:46:03;;;;;;;9.65;1.42;;;8.20;70.80;;;;;;5035596;28;20053;-78
2022/02/19 10:48:34;;;;;;;7.10;0.97;;;8.20;70.70;;;;;;5019770;28;20047;-78
2022/02/19 10:51:21;;;;;;;4.00;0.82;;;8.10;70.50;;;;;;5034754;28;20295;-84
2022/02/19 10:54:09;;;;;;;4.80;0.60;;;8.00;71.50;;;;;;5018526;28;20124;-77
2022/02/19 10:56:42;;;;;;;6.35;0.70;;;7.80;71.10;;;;;;5034385;28;20045;-78
2022/02/19 10:59:13;;;;;;;7.82;1.13;;;7.70;70.70;;;;;;5034744;28;20071;-77
2022/02/19 11:01:50;;;;;;;5.05;0.50;;;7.60;70.30;;;;;;5020967;28;20045;-77
2022/02/19 11:04:38;;;;;;;6.00;1.02;;;7.60;70.30;;;;;;5034854;28;20056;-77
2022/02/19 11:10:46;;;;;;;6.20;0.90;;;7.90;70.60;;;;;;5033939;28;20090;-77
2022/02/19 11:13:32;;;;;;;6.40;1.25;;;8.10;70.30;;;;;;5017840;28;20116;-77
2022/02/19 11:16:24;;;;;;;7.45;1.40;;;8.20;69.90;;;;;;5005845;28;20065;-77
2022/02/19 11:19:00;;;;;;;9.02;0.93;;;8.30;70.10;;;;;;5034156;28;20049;-77
2022/02/19 11:21:38;;;;;;;5.43;0.82;;;8.30;70.40;;;;;;5021146;28;20067;-77
2022/02/19 11:24:18;;;;;;;5.03;0.75;;;8.40;70.40;;;;;;5052036;28;20139;-77
2022/02/19 11:26:50;;;;;;;4.78;0.70;;;8.50;70.60;;;;;;5023964;28;20044;-77
2022/02/19 11:29:25;;;;;;;9.75;1.85;;;8.60;70.20;;;;;;5021427;28;20048;-77
2022/02/19 11:31:56;;;;;;;7.78;0.98;;;8.60;70.20;;;;;;5054675;28;20515;-79
2022/02/19 11:34:27;;;;;;;6.03;1.20;;;8.60;70.50;;;;;;5058456;28;20066;-79
2022/02/19 11:37:13;;;;;;;8.15;0.88;;;8.60;70.50;;;;;;5059004;28;20072;-79
2022/02/19 11:40:00;;;;;;;4.95;1.55;;;8.70;70.20;;;;;;5058276;28;20125;-79
2022/02/19 11:42:55;;;;;;;6.90;0.60;;;8.60;69.40;;;;;;5044036;28;20044;-79
2022/02/19 11:45:31;;;;;;;3.22;0.50;;;8.50;69.00;;;;;;5041724;28;20062;-79
2022/02/19 11:48:04;;;;;;;2.22;0.43;;;8.50;69.10;;;;;;5041370;28;20051;-79
2022/02/19 11:50:33;;;;;;;4.07;0.68;;;8.50;68.80;;;;;;5041420;28;20052;-79
2022/02/19 11:53:13;;;;;;;5.40;1.25;;;8.60;68.70;;;;;;5041798;28;20049;-79
2022/02/19 11:55:44;;;;;;;6.25;0.93;;;8.70;67.90;;;;;;5057954;28;20052;-79
2022/02/19 11:58:14;;;;;;;3.57;0.57;;;8.60;67.30;;;;;;5076098;28;20045;-79
2022/02/19 12:00:51;;;;;;;2.15;0.73;;;8.70;67.00;;;;;;5060198;28;20346;-79
2022/02/19 12:03:28;;;;;;;7.65;0.93;;;8.80;66.90;;;;;;5066267;28;20045;-78
2022/02/19 12:06:16;;;;;;;5.32;0.75;;;8.90;67.00;;;;;;5045545;28;20558;-78
2022/02/19 12:09:04;;;;;;;7.95;0.60;;;8.90;66.60;;;;;;5060921;28;20041;-78
2022/02/19 12:11:56;;;;;;;6.55;0.40;;;8.80;66.90;;;;;;5062294;28;20044;-78
2022/02/19 12:14:42;;;;;;;5.18;0.95;;;8.70;66.60;;;;;;5044413;28;20147;-78
2022/02/19 12:17:23;;;;;;;4.22;0.73;;;8.60;67.00;;;;;;5041143;28;20098;-78
2022/02/19 12:19:59;;;;;;;5.55;0.70;;;8.60;67.00;;;;;;5057613;28;20040;-78
2022/02/19 12:22:52;;;;;;;4.97;0.77;;;8.60;67.10;;;;;;5041476;28;20496;-78
2022/02/19 12:25:23;;;;;;;3.85;0.68;;;8.60;67.20;;;;;;5057042;28;20140;-78
2022/02/19 12:28:17;;;;;;;4.28;1.05;;;8.60;67.50;;;;;;5057310;28;20155;-78
2022/02/19 12:31:20;;;;;;;3.97;0.85;;;8.80;67.30;;;;;;5056401;28;20530;-78
2022/02/19 12:33:54;;;;;;;7.47;1.23;;;8.90;67.20;;;;;;5040965;28;20056;-78
2022/02/19 12:36:22;;;;;;;5.63;0.65;;;8.80;67.00;;;;;;5040529;28;20054;-77
2022/02/19 12:38:53;;;;;;;3.88;0.52;;;8.80;67.10;;;;;;5074904;28;20095;-76
2022/02/19 12:41:25;;;;;;;6.18;0.50;;;8.90;67.20;;;;;;5056903;28;20458;-77
2022/02/19 12:44:13;;;;;;;4.80;0.40;;;8.90;67.00;;;;;;5056073;28;20501;-77
2022/02/19 12:46:43;;;;;;;6.95;0.85;;;9.00;66.80;;;;;;5041121;28;20098;-79
2022/02/19 12:49:12;;;;;;;4.60;0.70;;;9.10;66.60;;;;;;5056738;28;20040;-78
2022/02/19 12:52:12;;;;;;;3.00;0.40;;;9.10;65.80;;;;;;5054018;28;20056;-81
2022/02/19 12:54:56;;;;;;;2.33;0.43;;;9.20;65.50;;;;;;5056544;28;20124;-80
2022/02/19 12:57:31;;;;;;;6.70;1.15;;;9.20;64.50;;;;;;5040664;28;20098;-80
2022/02/19 13:00:17;;;;;;;4.30;1.15;;;9.30;64.70;;;;;;5041443;28;20139;-79
2022/02/19 13:03:10;;;;;;;;;;;;;;;;;;;;;
2022/02/19 13:05:56;;;;;;;3.83;0.57;;;9.40;64.10;;;;;;5056557;28;20071;-78
2022/02/19 13:08:40;;;;;;;3.88;0.45;;;9.30;63.90;;;;;;5040069;28;20048;-79
2022/02/19 13:11:17;;;;;;;3.47;0.40;;;9.40;64.30;;;;;;5056940;28;20074;-79
2022/02/19 13:13:46;;;;;;;4.50;0.98;;;9.40;64.00;;;;;;5056539;28;20094;-77
2022/02/19 13:16:22;;;;;;;6.85;0.98;;;9.40;63.70;;;;;;5056217;28;20052;-75
2022/02/19 13:18:51;;;;;;;2.58;0.40;;;9.40;64.00;;;;;;5039365;28;20059;-76
2022/02/19 13:21:18;;;;;;;6.20;0.70;;;9.40;64.10;;;;;;5039960;28;20040;-76
2022/02/19 13:23:47;;;;;;;5.10;0.70;;;9.40;64.30;;;;;;5056033;28;20068;-76
2022/02/19 13:26:31;;;;;;;3.80;0.60;;;9.30;64.10;;;;;;5037355;28;20111;-76
2022/02/19 13:29:00;;;;;;;2.35;0.60;;;9.30;63.90;;;;;;5019931;28;20052;-76
2022/02/19 13:31:31;;;;;;;3.97;0.70;;;9.20;63.70;;;;;;5037087;28;20115;-76
2022/02/19 13:33:59;;;;;;;4.38;0.43;;;9.10;63.60;;;;;;5036147;28;20807;-76
2022/02/19 13:36:30;;;;;;;4.90;0.50;;;9.00;63.90;;;;;;5036038;28;20059;-76
2022/02/19 13:38:57;;;;;;;3.28;0.88;;;9.00;64.30;;;;;;5036114;28;20041;-76
2022/02/19 13:41:24;;;;;;;3.92;0.55;;;8.90;64.50;;;;;;5053774;28;20044;-76
2022/02/19 13:43:59;;;;;;;2.92;0.80;;;8.90;64.90;;;;;;5037423;28;20056;-76
2022/02/19 13:46:27;;;;;;;4.90;0.70;;;8.90;64.50;;;;;;5020802;28;20057;-76
2022/02/19 13:48:55;;;;;;;3.67;0.60;;;8.90;64.20;;;;;;5036105;28;20037;-76
2022/02/19 13:51:32;;;;;;;3.72;0.57;;;8.90;64.30;;;;;;5036255;28;20552;-76
2022/02/19 13:54:18;;;;;;;3.90;0.60;;;8.90;64.20;;;;;;5035476;28;20048;-76
2022/02/19 13:56:46;;;;;;;3.33;0.30;;;8.90;64.20;;;;;;5019038;28;20098;-76